createdAt,value
2023-01-19T00:04:05.799Z,19.40
2023-01-19T00:08:59.635Z,19.30
2023-01-19T00:13:54.149Z,19.29
2023-01-19T00:18:48.214Z,19.39
2023-01-19T00:23:42.638Z,19.28
2023-01-19T00:28:35.654Z,19.36
2023-01-19T00:33:29.509Z,19.37
2023-01-19T00:38:23.577Z,19.26
2023-01-19T00:43:21.175Z,19.40
2023-01-19T00:48:14.376Z,19.36
2023-01-19T00:53:07.709Z,19.31
2023-01-19T00:58:02.076Z,19.26
2023-01-19T01:02:55.965Z,19.22
2023-01-19T01:07:49.912Z,19.36
2023-01-19T01:13:20.397Z,19.34
2023-01-19T01:17:57.130Z,19.26
2023-01-19T01:22:52.758Z,19.27
2023-01-19T01:27:45.853Z,19.34
2023-01-19T01:32:39.166Z,19.23
2023-01-19T01:37:33.106Z,19.33
2023-01-19T01:42:35.884Z,19.31
2023-01-19T01:47:50.429Z,19.37
2023-01-19T01:53:06.311Z,19.37
2023-01-19T01:58:05.616Z,19.36
2023-01-19T02:03:01.175Z,19.23
2023-01-19T02:08:37.288Z,19.34
2023-01-19T02:13:37.515Z,19.33
2023-01-19T02:18:32.541Z,19.21
2023-01-19T02:23:38.243Z,19.35
2023-01-19T02:28:31.722Z,19.24
2023-01-19T02:33:30.467Z,19.35
2023-01-19T02:38:27.728Z,19.20
2023-01-19T02:43:21.221Z,19.20
2023-01-19T02:48:14.864Z,19.34
2023-01-19T02:53:35.338Z,19.30
2023-01-19T02:58:36.312Z,19.22
2023-01-19T03:03:33.392Z,19.33
2023-01-19T03:08:33.424Z,19.36
2023-01-19T03:13:41.959Z,19.31
2023-01-19T03:19:14.620Z,19.35
2023-01-19T03:24:09.162Z,19.33
2023-01-19T03:29:03.859Z,19.33
2023-01-19T03:34:02.870Z,19.35
2023-01-19T03:38:58.642Z,19.36
2023-01-19T03:43:53.551Z,19.23
2023-01-19T03:48:49.322Z,19.21
2023-01-19T03:53:42.282Z,19.36
2023-01-19T03:58:36.379Z,19.27
2023-01-19T04:03:30.355Z,19.35
2023-01-19T04:08:23.570Z,19.20
2023-01-19T04:13:16.778Z,19.33
2023-01-19T04:18:10.547Z,19.31
2023-01-19T04:23:04.645Z,19.31
2023-01-19T04:28:00.268Z,19.24
2023-01-19T04:32:56.311Z,19.22
2023-01-19T04:37:49.741Z,19.22
2023-01-19T04:42:47.178Z,19.23
2023-01-19T04:47:43.306Z,19.25
2023-01-19T04:52:37.130Z,19.20
2023-01-19T04:57:30.936Z,19.29
2023-01-19T05:02:25.040Z,19.33
2023-01-19T05:07:18.283Z,19.21
2023-01-19T05:12:12.222Z,19.41
2023-01-19T05:17:04.808Z,19.34
2023-01-19T05:21:58.034Z,19.42
2023-01-19T05:26:51.765Z,19.36
2023-01-19T05:31:45.531Z,19.48
2023-01-19T05:36:38.726Z,19.52
2023-01-19T05:41:32.585Z,19.54
2023-01-19T05:46:26.068Z,19.57
2023-01-19T05:51:19.493Z,19.49
2023-01-19T05:56:13.815Z,19.50
2023-01-19T06:01:10.475Z,19.58
2023-01-19T06:06:03.801Z,19.52
2023-01-19T06:10:57.741Z,19.63
2023-01-19T06:15:58.455Z,19.53
2023-01-19T06:20:53.112Z,19.58
2023-01-19T06:25:47.379Z,19.54
2023-01-19T06:30:41.078Z,19.48
2023-01-19T06:35:36.619Z,19.54
2023-01-19T06:40:30.545Z,19.54
2023-01-19T06:45:23.821Z,19.56
2023-01-19T06:50:18.139Z,19.52
2023-01-19T06:55:12.125Z,19.55
2023-01-19T07:00:09.903Z,19.50
2023-01-19T07:05:03.102Z,19.60
2023-01-19T07:09:56.176Z,19.47
2023-01-19T07:14:50.311Z,19.46
2023-01-19T07:19:44.046Z,19.53
2023-01-19T07:24:38.163Z,19.53
2023-01-19T07:29:32.185Z,19.46
2023-01-19T07:34:26.301Z,19.36
2023-01-19T07:39:20.323Z,19.32
2023-01-19T07:44:14.394Z,19.34
2023-01-19T07:49:08.717Z,19.44
2023-01-19T07:54:01.749Z,19.33
2023-01-19T07:58:54.753Z,19.22
2023-01-19T08:03:51.389Z,19.43
2023-01-19T08:08:45.670Z,19.40
2023-01-19T08:13:40.143Z,19.38
2023-01-19T08:18:33.335Z,19.33
2023-01-19T08:23:28.610Z,19.29
2023-01-19T08:28:22.748Z,19.12
2023-01-19T08:33:16.902Z,19.10
2023-01-19T08:38:10.824Z,19.17
2023-01-19T08:43:07.876Z,19.12
2023-01-19T08:48:00.970Z,18.95
2023-01-19T08:52:57.907Z,18.82
2023-01-19T08:57:55.320Z,18.99
2023-01-19T09:02:48.513Z,18.84
2023-01-19T09:07:42.293Z,18.81
2023-01-19T09:12:36.172Z,18.83
2023-01-19T09:17:29.480Z,18.80
2023-01-19T09:22:27.188Z,18.95
2023-01-19T09:27:20.664Z,18.98
2023-01-19T09:32:13.932Z,18.93
2023-01-19T09:37:08.506Z,18.77
2023-01-19T09:42:25.523Z,18.99
2023-01-19T09:47:24.369Z,18.95
2023-01-19T09:52:19.019Z,18.92
2023-01-19T09:57:13.107Z,18.89
2023-01-19T10:02:20.135Z,18.92
2023-01-19T10:07:29.786Z,18.90
2023-01-19T10:13:03.845Z,18.80
2023-01-19T10:18:12.813Z,18.92
2023-01-19T10:23:20.439Z,18.92
2023-01-19T10:28:16.438Z,18.79
2023-01-19T10:33:14.348Z,18.92
2023-01-19T10:38:07.075Z,18.95
2023-01-19T10:43:00.971Z,18.85
2023-01-19T10:47:56.298Z,18.90
2023-01-19T10:52:55.224Z,19.00
2023-01-19T10:57:52.250Z,19.01
2023-01-19T11:02:51.659Z,19.00
2023-01-19T11:07:45.413Z,18.87
2023-01-19T11:12:43.894Z,18.98
2023-01-19T11:17:38.154Z,18.98
2023-01-19T11:22:33.852Z,18.86
2023-01-19T11:27:27.828Z,18.93
2023-01-19T11:32:24.075Z,18.92
2023-01-19T11:37:17.150Z,18.90
2023-01-19T11:42:13.282Z,18.66
2023-01-19T11:47:12.166Z,18.62
2023-01-19T11:52:25.131Z,18.85
2023-01-19T11:57:20.603Z,18.68
2023-01-19T12:02:28.596Z,18.80
2023-01-19T12:07:29.806Z,18.77
2023-01-19T12:12:33.598Z,18.78
2023-01-19T12:17:34.914Z,18.85
2023-01-19T12:22:29.423Z,18.63
2023-01-19T12:27:39.464Z,18.81
2023-01-19T12:32:35.209Z,18.85
2023-01-19T12:37:40.183Z,18.90
2023-01-19T12:42:34.615Z,18.94
2023-01-19T12:47:28.407Z,18.88
2023-01-19T12:52:41.653Z,18.87
2023-01-19T12:57:41.028Z,18.88
2023-01-19T13:02:45.722Z,18.85
2023-01-19T13:08:03.942Z,18.91
2023-01-19T13:13:21.195Z,18.89
2023-01-19T13:18:22.549Z,18.78
2023-01-19T13:23:22.345Z,18.93
2023-01-19T13:28:18.030Z,18.93
2023-01-19T13:33:19.733Z,18.93
2023-01-19T13:38:14.223Z,18.98
2023-01-19T13:43:28.878Z,18.99
2023-01-19T13:48:24.584Z,18.99
2023-01-19T13:53:19.786Z,18.98
2023-01-19T13:58:25.596Z,18.90
2023-01-19T14:03:40.822Z,19.00
2023-01-19T14:08:38.069Z,19.00
2023-01-19T14:13:40.907Z,18.90
2023-01-19T14:18:35.616Z,19.04
2023-01-19T14:23:48.163Z,19.05
2023-01-19T14:28:44.598Z,19.01
2023-01-19T14:33:47.794Z,18.97
2023-01-19T14:39:04.436Z,19.08
2023-01-19T14:43:59.570Z,19.11
2023-01-19T14:48:58.511Z,19.00
2023-01-19T14:53:56.855Z,19.07
2023-01-19T14:58:51.639Z,19.00
2023-01-19T15:03:46.107Z,19.11
2023-01-19T15:08:39.737Z,19.06
2023-01-19T15:13:33.249Z,19.11
2023-01-19T15:18:28.876Z,19.13
2023-01-19T15:23:22.796Z,19.12
2023-01-19T15:28:19.356Z,19.14
2023-01-19T15:33:23.802Z,19.08
2023-01-19T15:38:17.277Z,19.08
2023-01-19T15:43:32.967Z,19.06
2023-01-19T15:48:43.340Z,19.14
2023-01-19T15:53:37.577Z,19.19
2023-01-19T15:58:31.477Z,19.21
2023-01-19T16:03:26.596Z,19.22
2023-01-19T16:08:20.471Z,19.18
2023-01-19T16:13:14.859Z,19.28
2023-01-19T16:18:08.720Z,19.11
2023-01-19T16:23:14.394Z,19.18
2023-01-19T16:28:09.258Z,19.40
2023-01-19T16:33:03.085Z,19.33
2023-01-19T16:37:56.514Z,19.38
2023-01-19T16:42:49.917Z,19.36
2023-01-19T16:47:46.203Z,19.12
2023-01-19T16:52:39.396Z,19.28
2023-01-19T16:57:32.728Z,19.06
2023-01-19T17:02:26.319Z,19.18
2023-01-19T17:07:19.567Z,19.09
2023-01-19T17:12:13.565Z,19.15
2023-01-19T17:17:10.179Z,19.16
2023-01-19T17:22:04.395Z,19.30
2023-01-19T17:26:56.778Z,19.29
2023-01-19T17:31:52.179Z,19.22
2023-01-19T17:36:46.511Z,19.36
2023-01-19T17:41:39.939Z,19.37
2023-01-19T17:46:36.758Z,19.35
2023-01-19T17:51:30.418Z,19.41
2023-01-19T17:56:29.280Z,19.42
2023-01-19T18:01:41.040Z,19.46
2023-01-19T18:06:34.462Z,19.37
2023-01-19T18:11:28.570Z,19.52
2023-01-19T18:16:27.017Z,19.51
2023-01-19T18:21:21.938Z,19.55
2023-01-19T18:26:20.620Z,19.51
2023-01-19T18:31:16.200Z,19.29
2023-01-19T18:36:10.196Z,19.52
2023-01-19T18:41:07.726Z,19.53
2023-01-19T18:46:00.587Z,19.55
2023-01-19T18:50:55.184Z,19.62
2023-01-19T18:55:56.762Z,19.52
2023-01-19T19:00:50.436Z,19.64
2023-01-19T19:05:45.060Z,19.59
2023-01-19T19:10:41.164Z,19.70
2023-01-19T19:15:35.336Z,19.70
2023-01-19T19:20:28.589Z,19.71
2023-01-19T19:25:21.675Z,19.63
2023-01-19T19:30:16.096Z,19.61
2023-01-19T19:35:09.046Z,19.70
2023-01-19T19:40:02.440Z,19.59
2023-01-19T19:44:56.185Z,19.60
2023-01-19T19:49:49.020Z,19.65
2023-01-19T19:54:43.041Z,19.74
2023-01-19T19:59:36.944Z,19.75
2023-01-19T20:04:31.070Z,19.61
2023-01-19T20:09:25.633Z,19.50
2023-01-19T20:14:19.341Z,19.68
2023-01-19T20:19:13.270Z,19.77
2023-01-19T20:24:18.191Z,19.76
2023-01-19T20:29:11.698Z,19.76
2023-01-19T20:34:07.500Z,19.73
2023-01-19T20:39:03.004Z,19.77
2023-01-19T20:43:56.805Z,19.66
2023-01-19T20:48:53.426Z,19.66
2023-01-19T20:53:46.616Z,19.50
2023-01-19T20:58:39.912Z,19.54
2023-01-19T21:03:32.000Z,19.56
2023-01-19T21:08:25.932Z,19.46
2023-01-19T21:13:18.948Z,19.57
2023-01-19T21:18:12.849Z,19.57
2023-01-19T21:23:06.051Z,19.55
2023-01-19T21:27:59.794Z,19.58
2023-01-19T21:32:53.182Z,19.44
2023-01-19T21:37:47.942Z,19.53
2023-01-19T21:42:41.323Z,19.44
2023-01-19T21:47:37.623Z,19.45
2023-01-19T21:52:32.000Z,19.53
2023-01-19T21:57:26.148Z,19.43
2023-01-19T22:02:37.727Z,19.36
2023-01-19T22:07:31.945Z,19.39
2023-01-19T22:12:26.124Z,19.54
2023-01-19T22:17:19.682Z,19.54
2023-01-19T22:22:13.374Z,19.45
2023-01-19T22:27:07.052Z,19.54
2023-01-19T22:32:00.766Z,19.55
2023-01-19T22:36:54.036Z,19.54
2023-01-19T22:41:47.692Z,19.52
2023-01-19T22:46:40.721Z,19.57
2023-01-19T22:51:35.018Z,19.41
2023-01-19T22:56:30.592Z,19.36
2023-01-19T23:01:26.378Z,19.35
2023-01-19T23:06:41.042Z,19.37
2023-01-19T23:11:36.822Z,19.34
2023-01-19T23:16:30.829Z,19.37
2023-01-19T23:21:26.385Z,19.45
2023-01-19T23:26:20.627Z,19.43
2023-01-19T23:31:19.486Z,19.19
2023-01-19T23:36:14.034Z,19.39
2023-01-19T23:41:07.830Z,19.40
2023-01-19T23:46:06.008Z,19.40
2023-01-19T23:50:58.506Z,19.39
2023-01-19T23:55:52.489Z,19.24
